Beaumont, CA

1:05 PM PDT on March 27, 2015 (GMT -0700)
Four Seasons at Beaumont | | Change Station
CLOSE
Current Station
Personal Weather Station
Location: Beaumont, CA
Elevation: 2687 ft
Nearby Weather Stations

Elev 2687 ft 33.90 °N, 116.96 °W | Updated 58 seconds ago

Clear
Clear
83.7 °F
Feels Like 81 °F
N
2.0
Wind Variable Wind from NW
Gusts 2.0 mph

Today
High -- | Low -- °F
--% Chance of Precip.
Yesterday
High -- | Low -- °F
Precip. -- in
6:42 AM 7:04 PM
First Quarter, 55% visible
Pressure 30.09 in
Visibility 10.0 miles
Clouds Clear
Heat Index 81 °F
Dew Point 33 °F
Humidity 16%
Rainfall 0.00 in
Snow Depth Not available.
UV 9 out of 12
Pollen 9.70 out of 12
Air Quality Not available.
Flu Activity Not available.
METAR KRIV 271858Z 00000KT 10SM CLR 30/M03 A3012 RMK AO2A SLP189 T02971034

More Conditions Fewer Conditions

Pressure 30.09 in
Visibility 10.0 miles
Clouds Clear
Heat Index 81 °F
Dew Point 33 °F
Humidity 16%
Rainfall 0.00 in
Snow Depth Not available.
UV 9 out of 12
Pollen 9.70 out of 12
Air Quality Not available.
Flu Activity Not available.
METAR KRIV 271858Z 00000KT 10SM CLR 30/M03 A3012 RMK AO2A SLP189 T02971034

More Conditions Fewer Conditions

10-Day Weather Forecast

Almanac

Astronomy

Mar. 27, 2015 Rise Set
Actual Time
Civil Twilight
Nautical Twilight
Astronomical Twilight
Moon
Length of Visible Light
Length of Day
Tomorrow will be .
, % of the Moon is Illuminated

Today's Extremes

State Highs State Lows

Community

WunderPhotos

Upload Photos

1,808,802 photos uploaded!

WunderBlogs® & News

Nearby

Air Quality

  Air Quality AQ Index Pollutant
Not available.

Snow Depth

Station Depth Elevation

Earthquake Activity

City Distance Mag. Time & Date
Minimum magnitude displayed is 2.5.

Coastal Water Temperatures

Place Temperature

Stations

Nearby Weather Stations

Station Location Temp. Windchill Dew Point Humidity Wind Precip. Elev Updated Type